createdAt,value
2018-05-17T00:02:07.176Z,45.00
2018-05-17T00:07:10.110Z,44.80
2018-05-17T00:12:13.268Z,45.00
2018-05-17T00:17:15.882Z,44.90
2018-05-17T00:22:19.203Z,44.90
2018-05-17T00:27:21.744Z,44.80
2018-05-17T00:32:24.289Z,45.50
2018-05-17T00:37:27.599Z,44.90
2018-05-17T00:42:30.915Z,44.80
2018-05-17T00:47:34.241Z,44.80
2018-05-17T00:52:37.023Z,44.80
2018-05-17T00:57:40.330Z,44.80
2018-05-17T01:02:43.190Z,44.80
2018-05-17T01:07:46.202Z,44.80
2018-05-17T01:12:48.873Z,44.80
2018-05-17T01:17:51.436Z,44.80
2018-05-17T01:22:54.736Z,44.80
2018-05-17T01:27:58.368Z,44.80
2018-05-17T01:33:01.694Z,44.80
2018-05-17T01:38:31.180Z,44.70
2018-05-17T01:43:33.758Z,44.70
2018-05-17T01:48:36.258Z,44.70
2018-05-17T01:53:40.449Z,44.70
2018-05-17T01:58:42.956Z,44.70
2018-05-17T02:03:45.650Z,44.70
2018-05-17T02:08:48.200Z,44.70
2018-05-17T02:13:51.533Z,44.70
2018-05-17T02:18:54.213Z,44.70
2018-05-17T02:23:56.773Z,44.60
2018-05-17T02:28:59.362Z,44.60
2018-05-17T02:34:02.158Z,44.60
2018-05-17T02:39:05.521Z,44.70
2018-05-17T02:44:08.432Z,44.70
2018-05-17T02:49:11.843Z,44.60
2018-05-17T02:54:14.410Z,44.60
2018-05-17T02:59:16.953Z,44.60
2018-05-17T03:04:19.485Z,44.60
2018-05-17T03:09:22.365Z,44.60
2018-05-17T03:14:24.961Z,44.60
2018-05-17T03:19:27.729Z,44.60
2018-05-17T03:24:30.856Z,44.50
2018-05-17T03:29:33.771Z,44.50
2018-05-17T03:34:36.317Z,44.50
2018-05-17T03:39:39.016Z,44.50
2018-05-17T03:44:41.740Z,44.50
2018-05-17T03:49:44.403Z,44.50
2018-05-17T03:54:47.243Z,44.50
2018-05-17T03:59:49.793Z,44.50
2018-05-17T04:05:04.292Z,44.50
2018-05-17T04:10:07.509Z,44.50
2018-05-17T04:15:10.313Z,44.50
2018-05-17T04:20:13.044Z,44.40
2018-05-17T04:25:15.946Z,44.30
2018-05-17T04:35:27.576Z,44.00
2018-05-17T04:40:30.336Z,44.00
2018-05-17T04:45:32.949Z,43.90
2018-05-17T04:50:35.536Z,43.80
2018-05-17T04:55:38.082Z,43.60
2018-05-17T05:00:41.221Z,43.60
2018-05-17T05:05:45.288Z,43.30
2018-05-17T05:10:48.088Z,43.30
2018-05-17T05:15:51.401Z,43.10
2018-05-17T05:20:54.290Z,43.10
2018-05-17T05:25:57.425Z,43.00
2018-05-17T05:31:00.002Z,42.90
2018-05-17T05:36:02.678Z,42.90
2018-05-17T05:41:05.273Z,42.90
2018-05-17T05:46:08.074Z,43.20
2018-05-17T05:51:10.881Z,43.50
2018-05-17T05:56:13.418Z,43.50
2018-05-17T06:01:16.003Z,43.40
2018-05-17T06:06:18.643Z,43.40
2018-05-17T06:11:21.242Z,43.40
2018-05-17T06:16:23.969Z,43.20
2018-05-17T06:21:27.525Z,43.10
2018-05-17T06:26:30.728Z,43.10
2018-05-17T06:31:33.409Z,43.00
2018-05-17T06:36:36.149Z,43.10
2018-05-17T06:41:39.108Z,43.20
2018-05-17T06:46:42.455Z,43.00
2018-05-17T06:51:45.768Z,43.00
2018-05-17T06:56:49.815Z,43.10
2018-05-17T07:01:52.362Z,43.00
2018-05-17T07:06:55.645Z,43.00
2018-05-17T07:11:58.896Z,42.90
2018-05-17T07:17:02.177Z,42.90
2018-05-17T07:22:04.855Z,42.90
2018-05-17T07:27:08.091Z,42.90
2018-05-17T07:32:11.437Z,42.80
2018-05-17T07:37:14.156Z,42.80
2018-05-17T07:42:16.723Z,42.80
2018-05-17T07:47:19.389Z,42.70
2018-05-17T07:52:21.890Z,42.80
2018-05-17T07:57:25.004Z,42.80
2018-05-17T08:02:27.589Z,42.60
2018-05-17T08:07:30.225Z,42.70
2018-05-17T08:12:32.847Z,42.70
2018-05-17T08:17:36.696Z,43.10
2018-05-17T08:22:39.291Z,43.10
2018-05-17T08:27:42.584Z,43.10
2018-05-17T08:32:45.143Z,43.00
2018-05-17T08:37:47.767Z,43.10
2018-05-17T08:42:51.223Z,43.30
2018-05-17T08:47:54.526Z,43.10
2018-05-17T08:52:57.176Z,43.70
2018-05-17T08:57:59.838Z,43.10
2018-05-17T09:03:02.422Z,43.10
2018-05-17T09:08:04.983Z,43.20
2018-05-17T09:13:08.441Z,43.20
2018-05-17T09:18:11.096Z,43.30
2018-05-17T09:23:13.646Z,43.20
2018-05-17T09:28:17.601Z,43.30
2018-05-17T09:33:20.509Z,43.30
2018-05-17T09:38:23.300Z,43.30
2018-05-17T09:43:25.968Z,43.30
2018-05-17T09:48:29.332Z,43.30
2018-05-17T09:53:32.927Z,43.30
2018-05-17T09:58:35.635Z,43.30
2018-05-17T10:03:38.206Z,43.30
2018-05-17T10:08:40.908Z,43.30
2018-05-17T10:13:44.315Z,43.30
2018-05-17T10:18:47.289Z,43.30
2018-05-17T10:23:52.170Z,43.30
2018-05-17T10:28:55.518Z,43.40
2018-05-17T10:33:58.041Z,43.30
2018-05-17T10:39:00.590Z,43.40
2018-05-17T10:44:03.160Z,43.40
2018-05-17T10:49:06.529Z,44.00
2018-05-17T10:54:09.094Z,43.40
2018-05-17T10:59:11.898Z,43.30
2018-05-17T11:04:14.422Z,43.40
2018-05-17T11:09:16.963Z,43.30
2018-05-17T11:14:21.398Z,43.30
2018-05-17T11:19:24.045Z,43.30
2018-05-17T11:24:27.143Z,43.30
2018-05-17T11:29:29.684Z,43.30
2018-05-17T11:34:32.217Z,43.30
2018-05-17T11:39:34.771Z,43.30
2018-05-17T11:44:37.643Z,43.40
2018-05-17T11:49:40.232Z,43.40
2018-05-17T11:54:42.787Z,43.30
2018-05-17T11:59:46.398Z,43.40
2018-05-17T12:04:49.828Z,43.40
2018-05-17T12:09:52.584Z,43.40
2018-05-17T12:14:55.679Z,43.40
2018-05-17T12:19:58.558Z,43.40
2018-05-17T12:25:01.302Z,43.30
2018-05-17T12:30:03.930Z,43.40
2018-05-17T12:35:06.797Z,43.30
2018-05-17T12:40:09.355Z,43.40
2018-05-17T12:45:11.957Z,43.40
2018-05-17T12:50:14.539Z,43.30
2018-05-17T12:55:17.106Z,43.40
2018-05-17T13:00:20.722Z,43.40
2018-05-17T13:05:24.006Z,43.50
2018-05-17T13:10:26.600Z,43.40
2018-05-17T13:15:29.222Z,43.40
2018-05-17T13:20:32.234Z,43.40
2018-05-17T13:25:35.752Z,43.40
2018-05-17T13:30:39.304Z,43.50
2018-05-17T13:35:42.080Z,43.50
2018-05-17T13:40:44.741Z,43.50
2018-05-17T13:45:48.118Z,43.70
2018-05-17T13:50:50.713Z,43.70
2018-05-17T13:55:53.471Z,43.80
2018-05-17T14:00:56.030Z,44.30
2018-05-17T14:05:58.823Z,44.20
2018-05-17T14:11:02.242Z,44.20
2018-05-17T14:16:04.925Z,44.30
2018-05-17T14:21:07.553Z,44.10
2018-05-17T14:26:10.527Z,44.40
2018-05-17T14:31:13.385Z,44.30
2018-05-17T14:36:15.965Z,44.60
2018-05-17T14:41:19.537Z,44.40
2018-05-17T14:46:22.471Z,44.40
2018-05-17T14:51:25.304Z,44.50
2018-05-17T14:56:28.343Z,44.40
2018-05-17T15:01:30.895Z,44.60
2018-05-17T15:06:33.617Z,44.60
2018-05-17T15:11:37.022Z,44.60
2018-05-17T15:16:40.449Z,45.30
2018-05-17T15:21:43.004Z,44.60
2018-05-17T15:26:45.593Z,44.70
2018-05-17T15:31:48.322Z,44.70
2018-05-17T15:36:52.256Z,44.70
2018-05-17T15:41:54.822Z,44.80
2018-05-17T15:46:57.384Z,44.80
2018-05-17T15:51:59.978Z,44.70
2018-05-17T15:57:03.043Z,44.80
2018-05-17T16:02:06.442Z,44.80
2018-05-17T16:07:09.384Z,44.80
2018-05-17T16:12:11.950Z,44.80
2018-05-17T16:17:15.621Z,44.80
2018-05-17T16:22:18.208Z,44.70
2018-05-17T16:27:21.045Z,44.80
2018-05-17T16:32:23.573Z,44.80
2018-05-17T16:37:27.184Z,44.80
2018-05-17T16:42:30.570Z,44.80
2018-05-17T16:47:33.396Z,44.70
2018-05-17T16:52:36.111Z,44.80
2018-05-17T16:57:38.566Z,44.80
2018-05-17T17:02:41.201Z,44.80
2018-05-17T17:07:44.284Z,44.80
2018-05-17T17:12:46.913Z,44.90
2018-05-17T17:17:50.364Z,44.90
2018-05-17T17:22:53.049Z,44.90
2018-05-17T17:27:55.810Z,44.90
2018-05-17T17:32:58.397Z,44.90
2018-05-17T17:38:01.005Z,44.90
2018-05-17T17:43:03.639Z,44.90
2018-05-17T17:48:06.219Z,45.00
2018-05-17T17:53:09.879Z,45.00
2018-05-17T17:58:12.617Z,44.90
2018-05-17T18:03:16.108Z,45.00
2018-05-17T18:08:18.654Z,44.90
2018-05-17T18:13:21.311Z,44.90
2018-05-17T18:18:24.815Z,44.90
2018-05-17T18:23:28.447Z,44.90
2018-05-17T18:28:31.764Z,45.00
2018-05-17T18:33:35.144Z,45.00
2018-05-17T18:38:37.733Z,44.90
2018-05-17T18:43:40.322Z,45.00
2018-05-17T18:48:43.309Z,45.00
2018-05-17T18:53:45.935Z,45.00
2018-05-17T18:58:48.715Z,45.00
2018-05-17T19:03:51.278Z,45.00
2018-05-17T19:08:53.810Z,44.90
2018-05-17T19:13:56.613Z,44.90
2018-05-17T19:18:59.867Z,44.90
2018-05-17T19:24:04.665Z,44.90
2018-05-17T19:29:07.330Z,44.90
2018-05-17T19:34:10.110Z,44.90
2018-05-17T19:39:12.951Z,44.90
2018-05-17T19:44:15.493Z,44.90
2018-05-17T19:49:18.079Z,44.90
2018-05-17T19:54:20.665Z,44.90
2018-05-17T19:59:23.655Z,44.90
2018-05-17T20:04:26.421Z,44.90
2018-05-17T20:09:29.042Z,44.80
2018-05-17T20:14:31.680Z,44.80
2018-05-17T20:19:34.540Z,44.80
2018-05-17T20:24:37.172Z,44.80
2018-05-17T20:29:40.266Z,44.80
2018-05-17T20:34:42.970Z,44.80
2018-05-17T20:39:45.706Z,44.70
2018-05-17T20:44:48.260Z,44.80
2018-05-17T20:49:51.009Z,44.70
2018-05-17T20:54:53.923Z,44.70
2018-05-17T20:59:56.726Z,44.70
2018-05-17T21:04:59.283Z,44.70
2018-05-17T21:10:02.598Z,44.90
2018-05-17T21:15:05.241Z,44.70
2018-05-17T21:20:07.896Z,44.70
2018-05-17T21:25:11.218Z,44.70
2018-05-17T21:30:14.125Z,44.70
2018-05-17T21:35:16.784Z,44.70
2018-05-17T21:40:19.434Z,44.70
2018-05-17T21:45:21.985Z,44.70
2018-05-17T21:50:24.957Z,44.70
2018-05-17T21:55:27.954Z,44.70
2018-05-17T22:00:30.663Z,44.60
2018-05-17T22:05:33.217Z,44.60
2018-05-17T22:10:35.875Z,44.60
2018-05-17T22:15:38.730Z,44.60
2018-05-17T22:20:42.401Z,44.60
2018-05-17T22:25:45.254Z,44.60
2018-05-17T22:30:48.101Z,44.60
2018-05-17T22:35:50.859Z,44.60
2018-05-17T22:40:54.171Z,44.60
2018-05-17T22:45:56.779Z,44.60
2018-05-17T22:50:59.448Z,44.60
2018-05-17T22:56:02.010Z,44.60
2018-05-17T23:01:05.661Z,44.60
2018-05-17T23:06:08.329Z,44.60
2018-05-17T23:11:11.138Z,44.50
2018-05-17T23:16:13.736Z,44.50
2018-05-17T23:21:16.456Z,44.60
2018-05-17T23:26:19.948Z,44.50
2018-05-17T23:31:22.531Z,44.50
2018-05-17T23:36:25.362Z,44.50
2018-05-17T23:41:35.707Z,44.40
2018-05-17T23:46:38.334Z,44.50
2018-05-17T23:51:41.686Z,44.50
2018-05-17T23:56:44.343Z,44.40
